Time;durP1;ratioP1;P1;durP2;ratioP2;P2;SDS_P1;SDS_P2;PMS_P1;PMS_P2;Temp;Humidity;BMP_temperature;BMP_pressure;BME280_temperature;BME280_humidity;BME280_pressure;Samples;Min_cycle;Max_cycle;Signal;HPM_P1;HPM_P2
2023/10/04 00:01:18;;;;;;;4.68;1.95;;;13.00;99.90;;;;;;5074757;28;20043;-89
2023/10/04 00:03:44;;;;;;;8.40;1.98;;;12.90;99.90;;;;;;5094548;27;20046;-89
2023/10/04 00:06:09;;;;;;;6.82;1.33;;;13.90;99.90;;;;;;5096064;27;20043;-89
2023/10/04 00:08:35;;;;;;;4.40;1.58;;;13.00;99.90;;;;;;5111463;27;20126;-88
2023/10/04 00:11:04;;;;;;;4.05;1.50;;;13.00;99.90;;;;;;5092069;28;20050;-87
2023/10/04 00:13:33;;;;;;;8.65;1.40;;;13.00;99.90;;;;;;5093723;28;20165;-88
2023/10/04 00:15:59;;;;;;;5.72;1.35;;;13.90;99.90;;;;;;5077772;28;20054;-88
2023/10/04 00:18:29;;;;;;;6.05;1.70;;;13.00;99.90;;;;;;5092642;27;20043;-89
2023/10/04 00:20:55;;;;;;;6.35;1.77;;;13.00;99.90;;;;;;5111148;28;20126;-87
2023/10/04 00:23:21;;;;;;;5.70;1.63;;;13.50;99.90;;;;;;5091982;28;20131;-87
2023/10/04 00:25:46;;;;;;;5.57;1.92;;;12.90;99.90;;;;;;5090878;28;20520;-87
2023/10/04 00:28:12;;;;;;;6.25;1.55;;;12.90;99.90;;;;;;5110447;28;20039;-87
2023/10/04 00:30:37;;;;;;;4.70;2.22;;;12.90;99.90;;;;;;5111173;27;20498;-87
2023/10/04 00:33:05;;;;;;;6.45;1.90;;;12.80;99.90;;;;;;5091118;27;20027;-88
2023/10/04 00:35:31;;;;;;;9.40;2.60;;;12.80;99.90;;;;;;5101304;28;20039;-87
2023/10/04 00:37:57;;;;;;;7.45;2.33;;;12.70;99.90;;;;;;5093810;28;20141;-86
2023/10/04 00:40:28;;;;;;;7.05;2.40;;;12.70;99.90;;;;;;5110247;28;20122;-89
2023/10/04 00:42:55;;;;;;;5.50;1.92;;;12.60;99.90;;;;;;5082504;28;20075;-86
2023/10/04 00:45:22;;;;;;;5.38;2.13;;;12.60;99.90;;;;;;5090966;28;20051;-87
2023/10/04 00:47:52;;;;;;;8.73;2.38;;;12.50;99.90;;;;;;5105509;28;20035;-88
2023/10/04 00:50:22;;;;;;;7.30;2.40;;;12.50;99.90;;;;;;5101618;28;20031;-87
2023/10/04 00:52:54;;;;;;;6.57;1.90;;;12.40;99.90;;;;;;5090771;28;20036;-87
2023/10/04 00:55:21;;;;;;;6.60;2.00;;;12.40;99.90;;;;;;5090217;28;20122;-87
2023/10/04 00:57:49;;;;;;;7.63;2.20;;;12.40;99.90;;;;;;5104160;28;20307;-87
2023/10/04 01:00:17;;;;;;;7.55;2.05;;;12.40;99.90;;;;;;5107495;28;20062;-86
2023/10/04 01:02:44;;;;;;;5.32;2.17;;;12.30;99.90;;;;;;5105798;28;20046;-87
2023/10/04 01:05:11;;;;;;;8.45;2.35;;;12.90;99.90;;;;;;5096327;28;20057;-86
2023/10/04 01:07:39;;;;;;;8.35;2.42;;;12.20;99.90;;;;;;5081397;28;20507;-86
2023/10/04 01:10:20;;;;;;;7.53;2.22;;;12.80;99.90;;;;;;5094391;28;20043;-86
2023/10/04 01:12:47;;;;;;;5.45;2.60;;;12.20;99.90;;;;;;5097766;28;20038;-87
2023/10/04 01:15:31;;;;;;;6.85;2.38;;;12.20;99.90;;;;;;5091322;28;20139;-86
2023/10/04 01:17:59;;;;;;;10.65;2.60;;;12.30;99.90;;;;;;5109412;28;20459;-86
2023/10/04 01:20:28;;;;;;;6.75;2.38;;;12.40;99.90;;;;;;5098605;28;20125;-88
2023/10/04 01:23:00;;;;;;;5.65;2.00;;;12.40;99.90;;;;;;5128001;28;20066;-86
2023/10/04 01:25:31;;;;;;;6.13;1.98;;;12.40;99.90;;;;;;5102349;28;20044;-86
2023/10/04 01:27:58;;;;;;;6.95;1.85;;;12.40;99.90;;;;;;5090221;28;20533;-87
2023/10/04 01:30:23;;;;;;;5.40;1.70;;;12.40;99.90;;;;;;5079026;28;20183;-87
2023/10/04 01:32:50;;;;;;;6.70;1.80;;;12.30;99.90;;;;;;5088876;28;20527;-87
2023/10/04 01:35:19;;;;;;;6.20;2.15;;;12.30;99.90;;;;;;5090777;28;20050;-86
2023/10/04 01:37:45;;;;;;;9.15;2.22;;;12.30;99.90;;;;;;5090524;28;20043;-88
2023/10/04 01:40:13;;;;;;;6.50;1.80;;;12.30;99.90;;;;;;5076669;28;20074;-87
2023/10/04 01:42:40;;;;;;;7.07;2.05;;;12.30;99.90;;;;;;5080380;27;20035;-89
2023/10/04 01:45:12;;;;;;;7.40;2.30;;;12.30;99.90;;;;;;5114457;27;20043;-87
2023/10/04 01:47:41;;;;;;;7.68;1.92;;;12.30;99.90;;;;;;5113302;27;20047;-87
2023/10/04 01:50:09;;;;;;;4.95;1.50;;;12.30;99.90;;;;;;5102678;28;20028;-87
2023/10/04 01:52:36;;;;;;;10.30;2.30;;;12.30;99.90;;;;;;5104468;27;20709;-86
2023/10/04 01:55:06;;;;;;;5.25;1.65;;;12.30;99.90;;;;;;5099079;28;20070;-87
2023/10/04 01:57:33;;;;;;;5.53;2.00;;;12.30;99.90;;;;;;5093888;27;20414;-87
2023/10/04 01:59:59;;;;;;;7.45;1.70;;;12.30;99.90;;;;;;5108119;28;20071;-87
2023/10/04 02:02:24;;;;;;;5.60;1.98;;;12.20;99.90;;;;;;5084416;27;20548;-86
2023/10/04 02:04:54;;;;;;;7.03;1.80;;;12.20;99.90;;;;;;5107511;27;20493;-87
2023/10/04 02:07:24;;;;;;;5.03;1.70;;;12.20;99.90;;;;;;5112638;27;20043;-88
2023/10/04 02:09:52;;;;;;;3.97;2.15;;;12.20;99.90;;;;;;5106713;28;20043;-88
2023/10/04 02:12:18;;;;;;;5.32;1.95;;;12.40;99.90;;;;;;5113015;27;20154;-86
2023/10/04 02:14:48;;;;;;;8.90;2.22;;;12.40;99.90;;;;;;5100396;28;20463;-87
2023/10/04 02:17:17;;;;;;;6.68;2.03;;;12.40;99.90;;;;;;5109340;27;20118;-86
2023/10/04 02:19:43;;;;;;;5.88;1.95;;;12.40;99.90;;;;;;5076025;28;20038;-87
2023/10/04 02:22:12;;;;;;;6.38;2.30;;;12.40;99.90;;;;;;5107629;27;20039;-86
2023/10/04 02:24:38;;;;;;;8.30;2.28;;;12.50;99.90;;;;;;5111886;27;20047;-86
2023/10/04 02:27:07;;;;;;;7.32;2.08;;;12.50;99.90;;;;;;5088882;28;20066;-86
2023/10/04 02:29:38;;;;;;;12.07;2.97;;;12.50;99.90;;;;;;5094700;28;20048;-87
2023/10/04 02:32:08;;;;;;;7.30;2.53;;;12.50;99.90;;;;;;5092875;28;20047;-86
2023/10/04 02:34:35;;;;;;;8.30;2.28;;;12.50;99.90;;;;;;5075673;28;20039;-87
2023/10/04 02:37:05;;;;;;;8.18;2.15;;;13.40;99.90;;;;;;5117248;27;20058;-87
2023/10/04 02:39:30;;;;;;;10.63;2.17;;;13.30;99.90;;;;;;5113739;27;20617;-87
2023/10/04 02:41:56;;;;;;;4.32;1.65;;;13.10;99.90;;;;;;5095390;27;20227;-87
2023/10/04 02:44:22;;;;;;;6.65;1.90;;;12.60;99.90;;;;;;5089075;28;20145;-88
2023/10/04 02:46:48;;;;;;;7.10;3.05;;;12.60;99.90;;;;;;5075599;28;20044;-86
2023/10/04 02:49:14;;;;;;;7.50;2.60;;;12.60;99.90;;;;;;5079239;28;20405;-88
2023/10/04 02:51:40;;;;;;;9.15;2.10;;;12.50;99.90;;;;;;5093234;28;20046;-88
2023/10/04 02:54:06;;;;;;;8.77;2.65;;;12.50;99.90;;;;;;5077106;27;20043;-88
2023/10/04 02:56:34;;;;;;;7.75;2.63;;;12.60;99.90;;;;;;5111868;27;20066;-87
2023/10/04 02:59:00;;;;;;;8.15;2.60;;;12.40;99.90;;;;;;5103344;28;20052;-88
2023/10/04 03:01:30;;;;;;;8.07;2.83;;;12.40;99.90;;;;;;5093792;27;20494;-87
2023/10/04 03:03:56;;;;;;;6.70;2.38;;;12.40;99.90;;;;;;5107702;28;20055;-88
2023/10/04 03:06:23;;;;;;;8.88;2.33;;;12.40;99.90;;;;;;5100443;27;20042;-88
2023/10/04 03:08:51;;;;;;;6.07;1.90;;;12.40;99.90;;;;;;5100131;28;20052;-88
2023/10/04 03:11:17;;;;;;;8.48;2.00;;;12.70;99.90;;;;;;5092741;28;20094;-88
2023/10/04 03:13:43;;;;;;;5.35;2.30;;;12.40;99.90;;;;;;5094380;28;20071;-88
2023/10/04 03:16:09;;;;;;;11.50;2.63;;;12.30;99.90;;;;;;5076148;27;20039;-88
2023/10/04 03:18:37;;;;;;;9.70;3.15;;;12.30;99.90;;;;;;5091637;28;20100;-89
2023/10/04 03:23:40;;;;;;;7.65;2.13;;;12.20;99.90;;;;;;5091632;28;20054;-88
2023/10/04 03:26:07;;;;;;;6.88;2.30;;;12.10;99.90;;;;;;5092695;28;20119;-88
2023/10/04 03:28:34;;;;;;;6.75;2.00;;;12.10;99.90;;;;;;5111027;27;20493;-89
2023/10/04 03:31:04;;;;;;;7.75;2.45;;;12.00;99.90;;;;;;5104544;27;20046;-88
2023/10/04 03:33:31;;;;;;;5.63;2.03;;;11.90;99.90;;;;;;5106288;27;20047;-87
2023/10/04 03:35:58;;;;;;;8.15;2.05;;;11.90;99.90;;;;;;5092237;28;20510;-88
2023/10/04 03:38:25;;;;;;;6.13;2.05;;;11.90;99.90;;;;;;5076636;28;20119;-89
2023/10/04 03:40:55;;;;;;;7.13;2.40;;;11.80;99.90;;;;;;5099236;28;20093;-89
2023/10/04 03:43:24;;;;;;;6.63;2.33;;;11.70;99.90;;;;;;5112818;27;20043;-89
2023/10/04 03:45:50;;;;;;;9.88;2.25;;;11.70;99.90;;;;;;5091811;27;20040;-89
2023/10/04 03:48:16;;;;;;;6.72;2.10;;;11.70;99.90;;;;;;5076484;27;20035;-89
2023/10/04 03:50:50;;;;;;;6.28;1.83;;;11.60;99.90;;;;;;5079143;28;20096;-89
2023/10/04 03:53:16;;;;;;;6.30;1.90;;;11.60;99.90;;;;;;5109801;27;20108;-90
2023/10/04 03:55:46;;;;;;;5.60;2.20;;;12.10;99.90;;;;;;5095733;27;20038;-90
2023/10/04 03:58:15;;;;;;;9.50;2.10;;;12.40;99.90;;;;;;5081165;28;20040;-91
2023/10/04 04:00:41;;;;;;;7.57;2.30;;;11.50;99.90;;;;;;5093476;27;20059;-90
2023/10/04 04:03:10;;;;;;;7.22;2.40;;;11.90;99.90;;;;;;5102828;28;20039;-89
2023/10/04 04:05:41;;;;;;;6.63;2.20;;;11.50;99.90;;;;;;5106828;28;20061;-90
2023/10/04 04:08:07;;;;;;;8.15;2.47;;;11.50;99.90;;;;;;5096553;28;20043;-90
2023/10/04 04:10:33;;;;;;;6.70;2.03;;;11.50;99.90;;;;;;5112965;27;20036;-89
2023/10/04 04:13:01;;;;;;;8.68;2.35;;;11.40;99.90;;;;;;5108122;27;20047;-90
2023/10/04 04:15:30;;;;;;;5.72;2.40;;;11.60;99.90;;;;;;5082382;27;20035;-90
2023/10/04 04:17:56;;;;;;;8.18;2.20;;;12.10;99.90;;;;;;5104027;28;20047;-91
2023/10/04 04:20:23;;;;;;;8.40;2.67;;;11.90;99.90;;;;;;5085019;28;20031;-90
2023/10/04 04:22:55;;;;;;;7.75;2.75;;;11.50;99.90;;;;;;5080087;27;20043;-91
2023/10/04 04:25:23;;;;;;;8.50;2.95;;;12.20;99.90;;;;;;5099735;28;20050;-89
2023/10/04 04:27:50;;;;;;;9.48;2.97;;;11.50;99.90;;;;;;5078271;28;20044;-91
2023/10/04 04:30:43;;;;;;;6.22;2.95;;;11.50;99.90;;;;;;5079728;28;20114;-90
2023/10/04 04:33:14;;;;;;;7.22;2.67;;;11.60;99.90;;;;;;5093923;28;20059;-90
2023/10/04 04:35:47;;;;;;;7.43;2.97;;;12.30;99.90;;;;;;5086431;27;20047;-88
2023/10/04 04:38:24;;;;;;;10.13;2.25;;;11.70;99.90;;;;;;5102566;28;20085;-90
2023/10/04 04:40:52;;;;;;;6.45;2.25;;;11.70;99.90;;;;;;5094204;28;20044;-92
2023/10/04 04:45:59;;;;;;;6.88;2.72;;;11.80;99.90;;;;;;5113853;28;20115;-91
2023/10/04 04:48:34;;;;;;;11.18;2.80;;;11.80;99.90;;;;;;5084135;28;20044;-90
2023/10/04 04:51:08;;;;;;;10.02;2.75;;;11.90;99.90;;;;;;5076270;28;20048;-92
2023/10/04 04:53:34;;;;;;;9.88;2.58;;;11.90;99.90;;;;;;5076038;28;20049;-90
2023/10/04 04:56:03;;;;;;;9.00;2.50;;;11.90;99.90;;;;;;5092891;28;20414;-90
2023/10/04 04:58:30;;;;;;;7.20;2.63;;;12.00;99.90;;;;;;5079350;28;20126;-90
2023/10/04 05:00:56;;;;;;;10.90;2.50;;;12.50;99.90;;;;;;5096400;28;20462;-91
2023/10/04 05:03:24;;;;;;;9.23;2.45;;;12.20;99.90;;;;;;5094191;28;20043;-89
2023/10/04 05:05:50;;;;;;;10.57;2.78;;;11.20;99.90;;;;;;5078527;28;20055;-91
2023/10/04 05:08:19;;;;;;;8.68;2.88;;;12.50;99.90;;;;;;5112816;28;20039;-90
2023/10/04 05:10:52;;;;;;;10.65;2.78;;;12.10;99.90;;;;;;5095922;28;20039;-90
2023/10/04 05:13:24;;;;;;;7.95;2.70;;;12.20;99.90;;;;;;5081639;28;20061;-90
2023/10/04 05:15:50;;;;;;;7.95;2.67;;;12.00;99.90;;;;;;5094740;28;20115;-91
2023/10/04 05:18:17;;;;;;;9.23;2.65;;;11.90;99.90;;;;;;5101550;28;20134;-89
2023/10/04 05:20:53;;;;;;;8.48;2.70;;;12.20;99.90;;;;;;5078811;27;20479;-89
2023/10/04 05:23:20;;;;;;;9.32;3.17;;;11.90;99.90;;;;;;5079531;27;20133;-87
2023/10/04 05:25:46;;;;;;;6.00;2.47;;;12.00;99.90;;;;;;5097986;27;20099;-89
2023/10/04 05:28:12;;;;;;;5.82;2.47;;;12.70;99.90;;;;;;5098092;27;20051;-88
2023/10/04 05:30:41;;;;;;;9.20;2.75;;;11.80;99.90;;;;;;5116029;27;20048;-90
2023/10/04 05:33:08;;;;;;;6.72;2.70;;;11.80;99.90;;;;;;5092557;28;20043;-90
2023/10/04 05:35:35;;;;;;;10.55;2.58;;;11.80;99.90;;;;;;5100669;28;20498;-91
2023/10/04 05:38:04;;;;;;;11.70;3.28;;;11.80;99.90;;;;;;5097635;27;20077;-90
2023/10/04 05:40:38;;;;;;;6.40;2.55;;;11.80;99.90;;;;;;5100821;27;20098;-89
2023/10/04 05:43:08;;;;;;;13.77;2.90;;;11.70;99.90;;;;;;5097001;27;20075;-89
2023/10/04 05:45:34;;;;;;;8.63;2.55;;;11.70;99.90;;;;;;5091564;27;20051;-90
2023/10/04 05:48:00;;;;;;;8.57;2.80;;;11.60;99.90;;;;;;5106138;28;20043;-91
2023/10/04 05:50:26;;;;;;;6.22;2.80;;;11.60;99.90;;;;;;5090232;27;20035;-92
2023/10/04 05:52:54;;;;;;;5.50;2.05;;;11.60;99.90;;;;;;5116841;27;20042;-91
2023/10/04 05:55:20;;;;;;;7.47;3.08;;;11.60;99.90;;;;;;5098955;27;20047;-90
2023/10/04 05:57:50;;;;;;;6.60;3.13;;;11.60;99.90;;;;;;5110310;28;20039;-91
2023/10/04 06:02:53;;;;;;;6.97;2.97;;;11.70;99.90;;;;;;5114606;27;20409;-89
2023/10/04 06:05:23;;;;;;;8.32;3.28;;;11.80;99.90;;;;;;5114933;27;20043;-86
2023/10/04 06:07:54;;;;;;;8.55;2.97;;;12.00;99.90;;;;;;5095038;28;20532;-88
2023/10/04 06:10:20;;;;;;;7.15;2.88;;;11.80;99.90;;;;;;5076726;28;20047;-87
2023/10/04 06:12:46;;;;;;;8.75;2.65;;;11.80;99.90;;;;;;5076729;27;20410;-86
2023/10/04 06:15:15;;;;;;;7.93;3.03;;;11.90;99.90;;;;;;5108898;27;20043;-87
2023/10/04 06:17:42;;;;;;;13.23;3.78;;;11.90;99.90;;;;;;5087858;28;20039;-86
2023/10/04 06:20:25;;;;;;;9.10;3.28;;;12.70;99.90;;;;;;5079517;28;20876;-86
2023/10/04 06:23:05;;;;;;;9.02;3.08;;;12.00;99.90;;;;;;5093504;27;20052;-86
2023/10/04 06:25:33;;;;;;;10.40;2.80;;;12.00;99.90;;;;;;5091460;28;20420;-86
2023/10/04 06:27:59;;;;;;;7.78;2.70;;;12.00;99.90;;;;;;5124432;27;20518;-86
2023/10/04 06:30:28;;;;;;;7.35;2.95;;;12.10;99.90;;;;;;5093688;28;20134;-86
2023/10/04 06:32:55;;;;;;;6.68;2.90;;;12.10;99.90;;;;;;5110817;28;20058;-87
2023/10/04 06:35:25;;;;;;;9.02;3.17;;;12.50;99.90;;;;;;5109708;28;20047;-86
2023/10/04 06:37:51;;;;;;;5.18;2.80;;;12.40;99.90;;;;;;5109248;28;20583;-87
2023/10/04 06:40:19;;;;;;;7.65;2.90;;;12.20;99.90;;;;;;5082508;28;20082;-86
2023/10/04 06:42:48;;;;;;;9.38;3.17;;;13.00;99.90;;;;;;5076765;28;20379;-86
2023/10/04 06:45:20;;;;;;;11.05;2.88;;;12.20;99.90;;;;;;5090656;28;20062;-86
2023/10/04 06:47:50;;;;;;;8.13;3.30;;;12.20;99.90;;;;;;5094728;28;20074;-87
2023/10/04 06:50:28;;;;;;;8.95;2.70;;;12.30;99.90;;;;;;5075816;28;20098;-86
2023/10/04 06:52:55;;;;;;;7.07;2.92;;;12.40;99.90;;;;;;5076922;27;20036;-87
2023/10/04 06:55:21;;;;;;;10.65;3.38;;;12.40;99.90;;;;;;5091785;28;20141;-83
2023/10/04 06:57:48;;;;;;;8.02;3.28;;;12.40;99.90;;;;;;5111044;27;20070;-84
2023/10/04 07:00:18;;;;;;;8.60;2.90;;;12.50;99.90;;;;;;5111939;27;20043;-84
2023/10/04 07:02:45;;;;;;;8.60;3.00;;;12.50;99.90;;;;;;5090111;28;20047;-85
2023/10/04 07:05:18;;;;;;;11.13;2.97;;;13.30;99.90;;;;;;5100688;27;20520;-83
2023/10/04 07:07:44;;;;;;;;;;;12.60;99.90;;;;;;5091122;28;20039;-83
2023/10/04 07:10:14;;;;;;;7.63;2.50;;;12.60;99.90;;;;;;5091719;28;19963;-83
2023/10/04 07:12:41;;;;;;;8.50;3.20;;;13.10;99.90;;;;;;5091652;28;20044;-82
2023/10/04 07:15:08;;;;;;;12.70;3.20;;;12.70;99.90;;;;;;5091318;28;20047;-84
2023/10/04 07:17:33;;;;;;;8.82;3.47;;;12.70;99.90;;;;;;5091969;28;20044;-84
2023/10/04 07:19:59;;;;;;;9.73;3.38;;;13.20;99.90;;;;;;5091789;28;20669;-84
2023/10/04 07:22:29;;;;;;;10.73;3.47;;;12.80;99.90;;;;;;5109861;28;20040;-83
2023/10/04 07:24:58;;;;;;;9.10;3.10;;;12.80;99.90;;;;;;5109257;28;20051;-86
2023/10/04 07:27:24;;;;;;;9.55;3.33;;;12.80;99.90;;;;;;5090021;27;20038;-83
2023/10/04 07:29:53;;;;;;;8.15;3.80;;;12.90;99.90;;;;;;5091618;28;20036;-85
2023/10/04 07:32:20;;;;;;;8.82;3.88;;;12.90;99.90;;;;;;5092128;28;20031;-85
2023/10/04 07:34:46;;;;;;;9.15;3.22;;;13.00;99.90;;;;;;5093650;28;20044;-84
2023/10/04 07:37:12;;;;;;;7.78;2.85;;;12.90;99.90;;;;;;5090549;27;20043;-85
2023/10/04 07:39:38;;;;;;;10.27;3.25;;;13.50;99.90;;;;;;5091217;28;20083;-84
2023/10/04 07:42:03;;;;;;;9.35;3.10;;;13.40;99.90;;;;;;5089833;28;20109;-85
2023/10/04 07:44:30;;;;;;;8.35;3.17;;;13.10;99.90;;;;;;5090916;28;20049;-86
2023/10/04 07:47:00;;;;;;;8.85;3.30;;;13.20;99.90;;;;;;5074117;28;20813;-86
2023/10/04 07:49:26;;;;;;;8.93;3.17;;;13.40;99.90;;;;;;5109041;28;20040;-83
2023/10/04 07:51:52;;;;;;;10.02;3.38;;;12.90;99.90;;;;;;5102545;27;20046;-83
2023/10/04 07:54:19;;;;;;;8.73;3.30;;;13.60;99.90;;;;;;5091178;27;20034;-83
2023/10/04 07:56:45;;;;;;;8.88;3.30;;;13.80;99.90;;;;;;5104080;27;20122;-87
2023/10/04 07:59:11;;;;;;;8.85;3.10;;;13.80;99.90;;;;;;5073584;28;20074;-86
2023/10/04 08:01:39;;;;;;;9.55;3.45;;;13.80;99.90;;;;;;5090420;28;20075;-86
2023/10/04 08:04:07;;;;;;;10.57;3.53;;;14.50;99.90;;;;;;5088276;27;20130;-86
2023/10/04 08:06:35;;;;;;;9.20;3.90;;;14.10;99.90;;;;;;5120760;27;20048;-86
2023/10/04 08:09:04;;;;;;;9.90;3.35;;;14.20;99.90;;;;;;5090429;28;20044;-85
2023/10/04 08:11:31;;;;;;;8.65;2.95;;;14.30;99.90;;;;;;5083670;27;20520;-88
2023/10/04 08:13:57;;;;;;;8.40;3.08;;;15.20;99.90;;;;;;5108891;27;20057;-87
2023/10/04 08:16:23;;;;;;;8.95;3.28;;;15.00;99.90;;;;;;5074708;28;20036;-87
2023/10/04 08:18:50;;;;;;;9.07;3.35;;;15.00;99.90;;;;;;5097156;27;20035;-87
2023/10/04 08:21:15;;;;;;;9.07;3.60;;;14.90;99.90;;;;;;5089589;27;20123;-84
2023/10/04 08:23:41;;;;;;;9.43;3.83;;;14.80;99.90;;;;;;5110169;27;20525;-84
2023/10/04 08:26:14;;;;;;;10.50;3.40;;;15.30;99.90;;;;;;5111206;28;20122;-84
2023/10/04 08:28:43;;;;;;;7.57;3.05;;;14.80;99.90;;;;;;5093885;27;20081;-85
2023/10/04 08:31:09;;;;;;;10.63;3.70;;;15.40;99.90;;;;;;5111612;28;20090;-84
2023/10/04 08:33:34;;;;;;;9.45;3.88;;;14.90;99.90;;;;;;5129415;27;20114;-82
2023/10/04 08:36:08;;;;;;;8.50;3.15;;;14.90;99.90;;;;;;5124358;27;20051;-81
2023/10/04 08:38:33;;;;;;;9.10;3.90;;;15.00;99.90;;;;;;5096760;28;20064;-81
2023/10/04 08:41:01;;;;;;;9.32;3.25;;;16.20;99.90;;;;;;5098810;28;20051;-82
2023/10/04 08:43:27;;;;;;;11.68;3.38;;;16.20;99.90;;;;;;5093113;28;20073;-82
2023/10/04 08:45:56;;;;;;;8.48;3.15;;;15.10;99.90;;;;;;5109454;28;20463;-84
2023/10/04 08:48:25;;;;;;;13.65;3.90;;;15.20;99.90;;;;;;5110061;28;20043;-84
2023/10/04 08:51:17;;;;;;;9.75;3.50;;;15.30;99.90;;;;;;5108139;28;20812;-84
2023/10/04 08:54:00;;;;;;;6.18;2.83;;;15.30;99.90;;;;;;5113730;27;20051;-85
2023/10/04 08:56:29;;;;;;;9.15;2.80;;;15.40;99.90;;;;;;5109145;28;20039;-84
2023/10/04 08:58:59;;;;;;;13.43;4.28;;;15.50;99.90;;;;;;5086700;27;20521;-84
2023/10/04 09:01:25;;;;;;;5.57;2.65;;;15.50;99.90;;;;;;5112465;27;20124;-84
2023/10/04 09:03:52;;;;;;;10.30;3.45;;;15.50;99.90;;;;;;5112742;27;20054;-84
2023/10/04 09:06:18;;;;;;;8.70;2.85;;;15.60;99.90;;;;;;5109942;27;20051;-83
2023/10/04 09:08:46;;;;;;;13.75;4.35;;;16.30;99.90;;;;;;5112445;27;20108;-85
2023/10/04 09:11:15;;;;;;;13.10;3.53;;;16.10;99.90;;;;;;5106781;27;20031;-86
2023/10/04 09:13:47;;;;;;;9.23;3.22;;;15.80;99.90;;;;;;5092794;28;20470;-84
2023/10/04 09:16:32;;;;;;;10.85;3.53;;;15.90;99.90;;;;;;5076951;28;20217;-81
2023/10/04 09:19:22;;;;;;;10.18;3.15;;;16.00;99.90;;;;;;5076997;28;20031;-81
2023/10/04 09:21:51;;;;;;;10.05;3.10;;;16.00;99.90;;;;;;5076772;28;20089;-82
2023/10/04 09:24:17;;;;;;;15.50;4.32;;;16.10;99.90;;;;;;5097258;27;20050;-81
2023/10/04 09:26:51;;;;;;;6.57;3.03;;;16.20;99.90;;;;;;5109267;27;20078;-81
2023/10/04 09:29:31;;;;;;;12.50;3.65;;;16.20;99.90;;;;;;5115862;27;20180;-83
2023/10/04 09:31:57;;;;;;;10.50;3.33;;;16.20;99.90;;;;;;5115980;27;20122;-82
2023/10/04 09:34:23;;;;;;;8.88;2.90;;;16.30;99.90;;;;;;5096617;28;20459;-84
2023/10/04 09:36:52;;;;;;;12.35;3.38;;;16.40;99.90;;;;;;5081031;28;20047;-83
2023/10/04 09:39:23;;;;;;;9.93;3.05;;;16.40;99.90;;;;;;5094954;28;20164;-85
2023/10/04 09:41:51;;;;;;;12.75;3.55;;;16.40;99.90;;;;;;5077413;28;20055;-84
2023/10/04 09:44:37;;;;;;;9.30;3.50;;;17.00;99.90;;;;;;5092361;28;20047;-84
2023/10/04 09:47:03;;;;;;;10.05;3.60;;;16.50;99.90;;;;;;5092944;28;20124;-82
2023/10/04 09:49:33;;;;;;;7.90;3.50;;;16.50;99.90;;;;;;5092606;28;20058;-83
2023/10/04 09:52:00;;;;;;;12.70;3.50;;;16.50;99.90;;;;;;5092636;28;20131;-84
2023/10/04 09:54:30;;;;;;;10.40;3.25;;;16.60;99.90;;;;;;5089259;27;20044;-83
2023/10/04 09:56:57;;;;;;;8.32;2.90;;;16.60;99.90;;;;;;5103848;28;20391;-85
2023/10/04 09:59:23;;;;;;;8.63;3.35;;;16.60;99.90;;;;;;5075659;28;20044;-85
2023/10/04 10:01:59;;;;;;;9.40;3.65;;;17.00;99.90;;;;;;5082709;27;20073;-86
2023/10/04 10:04:28;;;;;;;8.98;3.00;;;17.60;99.90;;;;;;5077775;28;20035;-84
2023/10/04 10:07:15;;;;;;;9.30;3.65;;;16.80;99.90;;;;;;5078342;27;20122;-86
2023/10/04 10:09:58;;;;;;;9.02;3.60;;;16.80;99.90;;;;;;5096007;28;20035;-85
2023/10/04 10:12:29;;;;;;;7.45;3.13;;;16.90;99.90;;;;;;5079455;28;20052;-86
2023/10/04 10:14:57;;;;;;;12.75;3.97;;;17.00;99.90;;;;;;5103741;27;20047;-85
2023/10/04 10:17:22;;;;;;;7.45;3.13;;;17.70;99.90;;;;;;5083373;28;20046;-83
2023/10/04 10:19:48;;;;;;;9.07;3.50;;;17.30;99.90;;;;;;5091556;28;20035;-86
2023/10/04 10:22:18;;;;;;;11.82;3.50;;;17.40;99.90;;;;;;5098005;27;20043;-85
2023/10/04 10:24:56;;;;;;;14.55;3.67;;;17.30;99.90;;;;;;5086817;27;20517;-86
2023/10/04 10:27:24;;;;;;;10.45;3.75;;;17.30;99.90;;;;;;5092833;28;20044;-85
2023/10/04 10:29:51;;;;;;;10.15;3.65;;;17.30;99.90;;;;;;5075245;28;20455;-87
2023/10/04 10:32:23;;;;;;;7.53;3.35;;;17.30;99.90;;;;;;5093861;28;20047;-89
2023/10/04 10:34:51;;;;;;;11.23;3.80;;;17.90;99.90;;;;;;5097881;27;20146;-87
2023/10/04 10:37:24;;;;;;;11.55;4.28;;;17.20;99.90;;;;;;5112208;27;20446;-86
2023/10/04 10:39:56;;;;;;;9.93;3.67;;;18.00;99.90;;;;;;5092458;28;20059;-86
2023/10/04 10:42:23;;;;;;;11.02;3.85;;;17.30;99.90;;;;;;5093106;28;20095;-85
2023/10/04 10:44:50;;;;;;;11.57;3.70;;;17.10;99.90;;;;;;5074487;28;20052;-86
2023/10/04 10:47:25;;;;;;;9.95;3.30;;;17.30;99.90;;;;;;5092007;28;20113;-86
2023/10/04 10:49:58;;;;;;;9.65;3.38;;;17.30;99.90;;;;;;5100484;27;20039;-85
2023/10/04 10:52:39;;;;;;;11.10;3.45;;;17.50;99.90;;;;;;5076344;28;20052;-84
2023/10/04 10:55:06;;;;;;;10.13;3.42;;;17.50;99.90;;;;;;5090625;28;20035;-83
2023/10/04 10:57:41;;;;;;;8.32;3.28;;;17.60;99.90;;;;;;5091787;28;20122;-86
2023/10/04 11:02:54;;;;;;;9.50;3.30;;;17.50;99.90;;;;;;5093351;28;20063;-88
2023/10/04 11:05:21;;;;;;;10.75;3.65;;;17.50;99.90;;;;;;5077338;28;20517;-88
2023/10/04 11:07:52;;;;;;;10.02;3.80;;;17.30;99.90;;;;;;5108132;27;20070;-84
2023/10/04 11:10:23;;;;;;;13.10;3.60;;;17.30;99.90;;;;;;5113255;27;20082;-84
2023/10/04 11:12:51;;;;;;;11.88;3.53;;;17.20;99.90;;;;;;5099877;28;20036;-85
2023/10/04 11:15:20;;;;;;;10.63;3.55;;;17.40;99.90;;;;;;5101074;27;20103;-86
2023/10/04 11:17:46;;;;;;;10.52;3.80;;;17.20;99.90;;;;;;5111897;27;20047;-87
2023/10/04 11:20:17;;;;;;;7.75;3.65;;;17.20;99.90;;;;;;5086190;27;20055;-85
2023/10/04 11:22:44;;;;;;;8.57;3.42;;;17.20;99.90;;;;;;5111619;27;20529;-84
2023/10/04 11:25:11;;;;;;;13.23;3.88;;;17.20;99.90;;;;;;5109483;27;20058;-85
2023/10/04 11:27:40;;;;;;;12.50;3.90;;;17.20;99.90;;;;;;5111694;27;20051;-85
2023/10/04 11:30:08;;;;;;;11.27;3.92;;;17.70;99.90;;;;;;5094713;28;20058;-85
2023/10/04 11:32:34;;;;;;;9.88;3.50;;;17.30;99.90;;;;;;5091221;28;20498;-83
2023/10/04 11:35:11;;;;;;;9.55;3.97;;;17.30;99.90;;;;;;5094966;28;20040;-86
2023/10/04 11:37:49;;;;;;;13.18;4.10;;;17.20;99.90;;;;;;5108699;27;20092;-84
2023/10/04 11:40:19;;;;;;;10.10;3.63;;;17.20;99.90;;;;;;5090129;28;20446;-84
2023/10/04 11:42:46;;;;;;;8.35;3.50;;;17.30;99.90;;;;;;5090913;28;20044;-84
2023/10/04 11:45:23;;;;;;;9.27;4.05;;;17.20;99.90;;;;;;5090498;28;20209;-85
2023/10/04 11:48:05;;;;;;;9.52;3.33;;;17.30;99.90;;;;;;5103165;27;20058;-85
2023/10/04 11:51:03;;;;;;;10.88;3.67;;;17.20;99.90;;;;;;5074876;28;20043;-84
2023/10/04 11:53:32;;;;;;;8.90;3.88;;;17.10;99.90;;;;;;5083708;28;20067;-88
2023/10/04 11:56:03;;;;;;;7.55;3.72;;;17.20;99.90;;;;;;5089945;28;20105;-85
2023/10/04 11:58:30;;;;;;;10.02;3.83;;;17.20;99.90;;;;;;5090356;28;20134;-84
2023/10/04 12:01:06;;;;;;;10.95;3.50;;;17.20;99.90;;;;;;5090142;28;20093;-85
2023/10/04 12:03:36;;;;;;;10.65;3.70;;;17.20;99.90;;;;;;5108791;27;20456;-84
2023/10/04 12:06:02;;;;;;;13.88;3.80;;;17.70;99.90;;;;;;5090379;28;20137;-85
2023/10/04 12:08:28;;;;;;;12.73;3.95;;;17.30;99.90;;;;;;5090799;28;20147;-84
2023/10/04 12:10:55;;;;;;;10.20;3.95;;;17.70;99.90;;;;;;5072967;28;20047;-84
2023/10/04 12:13:21;;;;;;;8.75;3.60;;;17.20;99.90;;;;;;5090162;28;20085;-85
2023/10/04 12:15:48;;;;;;;9.55;3.55;;;17.10;99.90;;;;;;5090400;28;20054;-84
2023/10/04 12:18:15;;;;;;;12.93;3.65;;;17.40;99.90;;;;;;5090443;28;20048;-85
2023/10/04 12:20:42;;;;;;;9.25;4.05;;;17.40;99.90;;;;;;5081496;27;20055;-85
2023/10/04 12:23:10;;;;;;;9.23;3.47;;;17.50;99.90;;;;;;5073063;28;20082;-86
2023/10/04 12:25:42;;;;;;;9.52;3.80;;;17.30;99.90;;;;;;5089564;28;20055;-84
2023/10/04 12:28:08;;;;;;;10.45;3.78;;;17.00;99.90;;;;;;5089177;28;20439;-85
2023/10/04 12:30:37;;;;;;;8.48;3.45;;;17.40;99.90;;;;;;5090038;28;20071;-85
2023/10/04 12:33:04;;;;;;;10.55;3.83;;;16.90;99.90;;;;;;5090029;28;20104;-85
2023/10/04 12:35:30;;;;;;;11.70;3.35;;;17.20;99.90;;;;;;5073573;28;20414;-87
2023/10/04 12:37:56;;;;;;;11.63;4.15;;;17.20;99.90;;;;;;5090797;28;20078;-88
2023/10/04 12:40:25;;;;;;;9.98;4.05;;;18.00;99.90;;;;;;5089717;28;20051;-88
2023/10/04 12:42:52;;;;;;;7.57;3.70;;;17.20;99.90;;;;;;5090192;28;20104;-88
2023/10/04 12:45:18;;;;;;;12.48;4.13;;;17.10;99.90;;;;;;5073239;28;20509;-87
2023/10/04 12:47:44;;;;;;;8.95;4.07;;;17.20;99.90;;;;;;5090741;28;20088;-88
2023/10/04 12:50:14;;;;;;;9.55;3.78;;;17.00;99.90;;;;;;5104141;28;20628;-88
2023/10/04 12:52:43;;;;;;;11.85;3.70;;;16.90;99.90;;;;;;5091596;28;20051;-87
2023/10/04 12:55:11;;;;;;;12.60;3.30;;;16.80;99.90;;;;;;5090890;28;20100;-88
2023/10/04 12:57:40;;;;;;;8.80;3.42;;;16.80;99.90;;;;;;5090453;28;20116;-88
2023/10/04 13:00:15;;;;;;;11.52;3.97;;;16.80;99.90;;;;;;5090472;28;20032;-89
2023/10/04 13:02:42;;;;;;;11.38;3.67;;;16.80;99.90;;;;;;5090602;28;20052;-88
2023/10/04 13:05:11;;;;;;;9.95;3.50;;;17.40;99.90;;;;;;5090498;28;20503;-88